sensor_id;sensor_type;location;lat;lon;timestamp;P1;durP1;ratioP1;P2;durP2;ratioP2
61358;SDS011;47228;46.762;23.598;2024-02-16T00:01:51;21.30;;;11.10;;
61358;SDS011;47228;46.762;23.598;2024-02-16T00:04:20;21.20;;;11.40;;
61358;SDS011;47228;46.762;23.598;2024-02-16T00:06:49;17.60;;;9.70;;
61358;SDS011;47228;46.762;23.598;2024-02-16T00:09:17;18.90;;;11.30;;
61358;SDS011;47228;46.762;23.598;2024-02-16T00:11:45;21.40;;;12.10;;
61358;SDS011;47228;46.762;23.598;2024-02-16T00:14:16;20.90;;;12.50;;
61358;SDS011;47228;46.762;23.598;2024-02-16T00:16:44;22.50;;;13.20;;
61358;SDS011;47228;46.762;23.598;2024-02-16T00:19:12;24.00;;;13.90;;
61358;SDS011;47228;46.762;23.598;2024-02-16T00:21:41;21.20;;;13.70;;
61358;SDS011;47228;46.762;23.598;2024-02-16T00:24:10;21.50;;;12.80;;
61358;SDS011;47228;46.762;23.598;2024-02-16T00:26:38;21.90;;;12.90;;
61358;SDS011;47228;46.762;23.598;2024-02-16T00:29:07;22.30;;;12.30;;
61358;SDS011;47228;46.762;23.598;2024-02-16T00:31:36;23.10;;;13.50;;
61358;SDS011;47228;46.762;23.598;2024-02-16T00:34:04;20.40;;;13.30;;
61358;SDS011;47228;46.762;23.598;2024-02-16T00:36:33;21.90;;;12.90;;
61358;SDS011;47228;46.762;23.598;2024-02-16T00:39:02;20.90;;;12.30;;
61358;SDS011;47228;46.762;23.598;2024-02-16T00:41:31;22.60;;;11.90;;
61358;SDS011;47228;46.762;23.598;2024-02-16T00:43:59;20.20;;;12.20;;
61358;SDS011;47228;46.762;23.598;2024-02-16T00:46:27;19.30;;;11.70;;
61358;SDS011;47228;46.762;23.598;2024-02-16T00:48:56;19.50;;;12.90;;
61358;SDS011;47228;46.762;23.598;2024-02-16T00:51:24;22.20;;;12.20;;
61358;SDS011;47228;46.762;23.598;2024-02-16T00:53:54;21.30;;;12.20;;
61358;SDS011;47228;46.762;23.598;2024-02-16T00:56:22;21.60;;;13.70;;
61358;SDS011;47228;46.762;23.598;2024-02-16T00:58:51;22.20;;;12.60;;
61358;SDS011;47228;46.762;23.598;2024-02-16T01:01:20;22.00;;;13.40;;
61358;SDS011;47228;46.762;23.598;2024-02-16T01:03:50;22.40;;;13.00;;
61358;SDS011;47228;46.762;23.598;2024-02-16T01:06:19;19.90;;;12.80;;
61358;SDS011;47228;46.762;23.598;2024-02-16T01:08:48;20.20;;;12.60;;
61358;SDS011;47228;46.762;23.598;2024-02-16T01:11:16;21.20;;;13.10;;
61358;SDS011;47228;46.762;23.598;2024-02-16T01:13:48;24.50;;;13.70;;
61358;SDS011;47228;46.762;23.598;2024-02-16T01:16:16;19.50;;;12.30;;
61358;SDS011;47228;46.762;23.598;2024-02-16T01:18:47;19.70;;;12.90;;
61358;SDS011;47228;46.762;23.598;2024-02-16T01:21:15;19.20;;;12.50;;
61358;SDS011;47228;46.762;23.598;2024-02-16T01:23:44;21.10;;;12.90;;
61358;SDS011;47228;46.762;23.598;2024-02-16T01:26:12;21.30;;;13.00;;
61358;SDS011;47228;46.762;23.598;2024-02-16T01:28:41;20.30;;;13.00;;
61358;SDS011;47228;46.762;23.598;2024-02-16T01:31:09;20.80;;;13.00;;
61358;SDS011;47228;46.762;23.598;2024-02-16T01:33:38;22.70;;;13.70;;
61358;SDS011;47228;46.762;23.598;2024-02-16T01:36:06;23.60;;;13.40;;
61358;SDS011;47228;46.762;23.598;2024-02-16T01:38:35;23.40;;;13.30;;
61358;SDS011;47228;46.762;23.598;2024-02-16T01:41:03;20.40;;;12.80;;
61358;SDS011;47228;46.762;23.598;2024-02-16T01:43:32;21.40;;;13.30;;
61358;SDS011;47228;46.762;23.598;2024-02-16T01:46:01;20.10;;;12.90;;
61358;SDS011;47228;46.762;23.598;2024-02-16T01:48:29;21.40;;;13.20;;
61358;SDS011;47228;46.762;23.598;2024-02-16T01:50:58;21.80;;;13.20;;
61358;SDS011;47228;46.762;23.598;2024-02-16T01:53:29;21.80;;;13.10;;
61358;SDS011;47228;46.762;23.598;2024-02-16T01:55:57;22.90;;;12.50;;
61358;SDS011;47228;46.762;23.598;2024-02-16T01:58:27;20.90;;;13.00;;
61358;SDS011;47228;46.762;23.598;2024-02-16T02:00:55;21.00;;;13.30;;
61358;SDS011;47228;46.762;23.598;2024-02-16T02:03:23;21.20;;;12.60;;
61358;SDS011;47228;46.762;23.598;2024-02-16T02:05:52;21.50;;;13.00;;
61358;SDS011;47228;46.762;23.598;2024-02-16T02:08:24;22.20;;;12.90;;
61358;SDS011;47228;46.762;23.598;2024-02-16T02:10:54;19.80;;;12.30;;
61358;SDS011;47228;46.762;23.598;2024-02-16T02:13:22;19.50;;;12.70;;
61358;SDS011;47228;46.762;23.598;2024-02-16T02:15:50;20.50;;;12.70;;
61358;SDS011;47228;46.762;23.598;2024-02-16T02:18:18;21.30;;;12.70;;
61358;SDS011;47228;46.762;23.598;2024-02-16T02:20:47;21.90;;;12.50;;
61358;SDS011;47228;46.762;23.598;2024-02-16T02:23:15;18.30;;;12.30;;
61358;SDS011;47228;46.762;23.598;2024-02-16T02:25:44;20.40;;;12.60;;
61358;SDS011;47228;46.762;23.598;2024-02-16T02:28:12;20.50;;;12.70;;
61358;SDS011;47228;46.762;23.598;2024-02-16T02:30:41;19.50;;;12.30;;
61358;SDS011;47228;46.762;23.598;2024-02-16T02:33:10;19.50;;;12.00;;
61358;SDS011;47228;46.762;23.598;2024-02-16T02:35:40;20.00;;;12.10;;
61358;SDS011;47228;46.762;23.598;2024-02-16T02:38:09;18.80;;;12.00;;
61358;SDS011;47228;46.762;23.598;2024-02-16T02:40:37;20.10;;;11.90;;
61358;SDS011;47228;46.762;23.598;2024-02-16T02:43:06;21.20;;;12.80;;
61358;SDS011;47228;46.762;23.598;2024-02-16T02:45:34;20.80;;;12.30;;
61358;SDS011;47228;46.762;23.598;2024-02-16T02:48:02;18.70;;;11.80;;
61358;SDS011;47228;46.762;23.598;2024-02-16T02:50:31;22.50;;;12.40;;
61358;SDS011;47228;46.762;23.598;2024-02-16T02:52:59;22.80;;;13.10;;
61358;SDS011;47228;46.762;23.598;2024-02-16T02:55:27;20.90;;;12.50;;
61358;SDS011;47228;46.762;23.598;2024-02-16T02:57:56;21.70;;;13.30;;
61358;SDS011;47228;46.762;23.598;2024-02-16T03:00:25;21.70;;;13.60;;
61358;SDS011;47228;46.762;23.598;2024-02-16T03:02:53;23.20;;;13.30;;
61358;SDS011;47228;46.762;23.598;2024-02-16T03:05:22;22.50;;;14.00;;
61358;SDS011;47228;46.762;23.598;2024-02-16T03:07:50;21.60;;;13.20;;
61358;SDS011;47228;46.762;23.598;2024-02-16T03:10:19;23.50;;;13.60;;
61358;SDS011;47228;46.762;23.598;2024-02-16T03:12:50;21.60;;;13.60;;
61358;SDS011;47228;46.762;23.598;2024-02-16T03:15:18;25.20;;;13.90;;
61358;SDS011;47228;46.762;23.598;2024-02-16T03:17:46;22.60;;;13.80;;
61358;SDS011;47228;46.762;23.598;2024-02-16T03:20:15;24.80;;;14.20;;
61358;SDS011;47228;46.762;23.598;2024-02-16T03:22:44;108.40;;;45.90;;
61358;SDS011;47228;46.762;23.598;2024-02-16T03:25:12;31.00;;;17.40;;
61358;SDS011;47228;46.762;23.598;2024-02-16T03:27:41;43.50;;;22.20;;
61358;SDS011;47228;46.762;23.598;2024-02-16T03:30:10;53.20;;;28.80;;
61358;SDS011;47228;46.762;23.598;2024-02-16T03:32:38;42.40;;;23.30;;
61358;SDS011;47228;46.762;23.598;2024-02-16T03:35:07;36.10;;;20.00;;
61358;SDS011;47228;46.762;23.598;2024-02-16T03:37:35;35.80;;;20.40;;
61358;SDS011;47228;46.762;23.598;2024-02-16T03:40:04;24.00;;;15.10;;
61358;SDS011;47228;46.762;23.598;2024-02-16T03:42:33;22.60;;;14.20;;
61358;SDS011;47228;46.762;23.598;2024-02-16T03:45:02;24.20;;;15.00;;
61358;SDS011;47228;46.762;23.598;2024-02-16T03:47:30;26.40;;;15.60;;
61358;SDS011;47228;46.762;23.598;2024-02-16T03:49:59;28.40;;;17.00;;
61358;SDS011;47228;46.762;23.598;2024-02-16T03:52:27;25.70;;;15.00;;
61358;SDS011;47228;46.762;23.598;2024-02-16T03:54:55;30.00;;;16.50;;
61358;SDS011;47228;46.762;23.598;2024-02-16T03:57:23;28.10;;;16.80;;
61358;SDS011;47228;46.762;23.598;2024-02-16T03:59:52;25.80;;;14.90;;
61358;SDS011;47228;46.762;23.598;2024-02-16T04:02:20;25.90;;;15.00;;
61358;SDS011;47228;46.762;23.598;2024-02-16T04:04:48;24.50;;;15.60;;
61358;SDS011;47228;46.762;23.598;2024-02-16T04:07:19;24.90;;;14.40;;
61358;SDS011;47228;46.762;23.598;2024-02-16T04:09:47;24.60;;;14.30;;
61358;SDS011;47228;46.762;23.598;2024-02-16T04:12:15;23.00;;;15.10;;
61358;SDS011;47228;46.762;23.598;2024-02-16T04:14:44;23.70;;;14.30;;
61358;SDS011;47228;46.762;23.598;2024-02-16T04:17:12;25.30;;;14.40;;
61358;SDS011;47228;46.762;23.598;2024-02-16T04:19:40;20.80;;;13.50;;
61358;SDS011;47228;46.762;23.598;2024-02-16T04:22:08;24.20;;;14.50;;
61358;SDS011;47228;46.762;23.598;2024-02-16T04:24:36;23.40;;;13.60;;
61358;SDS011;47228;46.762;23.598;2024-02-16T04:27:04;20.10;;;13.20;;
61358;SDS011;47228;46.762;23.598;2024-02-16T04:29:36;25.60;;;14.90;;
61358;SDS011;47228;46.762;23.598;2024-02-16T04:32:04;35.90;;;20.80;;
61358;SDS011;47228;46.762;23.598;2024-02-16T04:34:32;32.70;;;19.80;;
61358;SDS011;47228;46.762;23.598;2024-02-16T04:37:01;27.50;;;15.90;;
61358;SDS011;47228;46.762;23.598;2024-02-16T04:39:29;26.70;;;16.00;;
61358;SDS011;47228;46.762;23.598;2024-02-16T04:41:57;24.50;;;14.20;;
61358;SDS011;47228;46.762;23.598;2024-02-16T04:44:26;27.10;;;15.20;;
61358;SDS011;47228;46.762;23.598;2024-02-16T04:46:54;21.50;;;12.60;;
61358;SDS011;47228;46.762;23.598;2024-02-16T04:49:22;33.10;;;18.50;;
61358;SDS011;47228;46.762;23.598;2024-02-16T04:51:51;31.70;;;19.10;;
61358;SDS011;47228;46.762;23.598;2024-02-16T04:54:19;30.00;;;17.30;;
61358;SDS011;47228;46.762;23.598;2024-02-16T04:56:48;23.80;;;14.60;;
61358;SDS011;47228;46.762;23.598;2024-02-16T04:59:17;25.00;;;14.10;;
61358;SDS011;47228;46.762;23.598;2024-02-16T05:01:45;25.20;;;15.40;;
61358;SDS011;47228;46.762;23.598;2024-02-16T05:04:14;24.30;;;15.90;;
61358;SDS011;47228;46.762;23.598;2024-02-16T05:06:45;24.20;;;15.20;;
61358;SDS011;47228;46.762;23.598;2024-02-16T05:09:18;27.30;;;16.10;;
61358;SDS011;47228;46.762;23.598;2024-02-16T05:11:47;28.70;;;18.70;;
61358;SDS011;47228;46.762;23.598;2024-02-16T05:14:15;30.00;;;18.00;;
61358;SDS011;47228;46.762;23.598;2024-02-16T05:16:44;29.20;;;18.40;;
61358;SDS011;47228;46.762;23.598;2024-02-16T05:19:12;29.30;;;18.10;;
61358;SDS011;47228;46.762;23.598;2024-02-16T05:21:42;29.60;;;18.30;;
61358;SDS011;47228;46.762;23.598;2024-02-16T05:24:10;27.40;;;18.00;;
61358;SDS011;47228;46.762;23.598;2024-02-16T05:26:38;31.50;;;18.50;;
61358;SDS011;47228;46.762;23.598;2024-02-16T05:29:06;26.80;;;17.40;;
61358;SDS011;47228;46.762;23.598;2024-02-16T05:31:35;26.50;;;18.00;;
61358;SDS011;47228;46.762;23.598;2024-02-16T05:34:03;27.70;;;17.00;;
61358;SDS011;47228;46.762;23.598;2024-02-16T05:36:31;30.60;;;17.40;;
61358;SDS011;47228;46.762;23.598;2024-02-16T05:39:03;25.80;;;16.30;;
61358;SDS011;47228;46.762;23.598;2024-02-16T05:41:49;26.30;;;15.90;;
61358;SDS011;47228;46.762;23.598;2024-02-16T05:44:17;25.80;;;17.00;;
61358;SDS011;47228;46.762;23.598;2024-02-16T05:46:46;25.80;;;16.10;;
61358;SDS011;47228;46.762;23.598;2024-02-16T05:49:14;27.80;;;17.90;;
61358;SDS011;47228;46.762;23.598;2024-02-16T05:51:46;27.00;;;17.10;;
61358;SDS011;47228;46.762;23.598;2024-02-16T05:54:34;30.80;;;18.10;;
61358;SDS011;47228;46.762;23.598;2024-02-16T05:57:05;23.30;;;16.40;;
61358;SDS011;47228;46.762;23.598;2024-02-16T05:59:37;25.50;;;16.60;;
61358;SDS011;47228;46.762;23.598;2024-02-16T06:02:05;28.80;;;18.00;;
61358;SDS011;47228;46.762;23.598;2024-02-16T06:04:35;26.40;;;17.20;;
61358;SDS011;47228;46.762;23.598;2024-02-16T06:07:03;31.40;;;18.30;;
61358;SDS011;47228;46.762;23.598;2024-02-16T06:09:31;28.20;;;18.00;;
61358;SDS011;47228;46.762;23.598;2024-02-16T06:12:03;30.00;;;18.40;;
61358;SDS011;47228;46.762;23.598;2024-02-16T06:14:33;29.60;;;18.30;;
61358;SDS011;47228;46.762;23.598;2024-02-16T06:17:03;31.50;;;18.60;;
61358;SDS011;47228;46.762;23.598;2024-02-16T06:19:31;31.30;;;19.10;;
61358;SDS011;47228;46.762;23.598;2024-02-16T06:21:59;28.40;;;19.20;;
61358;SDS011;47228;46.762;23.598;2024-02-16T06:24:28;35.10;;;21.30;;
61358;SDS011;47228;46.762;23.598;2024-02-16T06:26:56;35.70;;;21.20;;
61358;SDS011;47228;46.762;23.598;2024-02-16T06:29:25;37.50;;;21.00;;
61358;SDS011;47228;46.762;23.598;2024-02-16T06:31:53;32.60;;;21.70;;
61358;SDS011;47228;46.762;23.598;2024-02-16T06:34:21;34.10;;;21.80;;
61358;SDS011;47228;46.762;23.598;2024-02-16T06:36:50;33.80;;;21.60;;
61358;SDS011;47228;46.762;23.598;2024-02-16T06:39:19;36.60;;;23.30;;
61358;SDS011;47228;46.762;23.598;2024-02-16T06:41:47;37.10;;;23.20;;
61358;SDS011;47228;46.762;23.598;2024-02-16T06:44:17;34.90;;;22.50;;
61358;SDS011;47228;46.762;23.598;2024-02-16T06:46:50;41.30;;;22.90;;
61358;SDS011;47228;46.762;23.598;2024-02-16T06:49:18;38.80;;;23.20;;
61358;SDS011;47228;46.762;23.598;2024-02-16T06:51:46;44.50;;;25.00;;
61358;SDS011;47228;46.762;23.598;2024-02-16T06:54:15;40.60;;;23.70;;
61358;SDS011;47228;46.762;23.598;2024-02-16T06:56:44;40.40;;;25.10;;
61358;SDS011;47228;46.762;23.598;2024-02-16T06:59:12;45.10;;;27.10;;
61358;SDS011;47228;46.762;23.598;2024-02-16T07:01:41;39.90;;;24.60;;
61358;SDS011;47228;46.762;23.598;2024-02-16T07:04:09;35.50;;;22.10;;
61358;SDS011;47228;46.762;23.598;2024-02-16T07:06:37;41.20;;;24.20;;
61358;SDS011;47228;46.762;23.598;2024-02-16T07:09:06;38.30;;;24.70;;
61358;SDS011;47228;46.762;23.598;2024-02-16T07:11:36;38.60;;;23.40;;
61358;SDS011;47228;46.762;23.598;2024-02-16T07:14:05;39.90;;;23.60;;
61358;SDS011;47228;46.762;23.598;2024-02-16T07:16:35;39.10;;;22.80;;
61358;SDS011;47228;46.762;23.598;2024-02-16T07:19:04;38.70;;;23.00;;
61358;SDS011;47228;46.762;23.598;2024-02-16T07:21:33;37.30;;;22.00;;
61358;SDS011;47228;46.762;23.598;2024-02-16T07:24:01;35.90;;;22.10;;
61358;SDS011;47228;46.762;23.598;2024-02-16T07:26:33;36.00;;;22.20;;
61358;SDS011;47228;46.762;23.598;2024-02-16T07:29:04;35.00;;;21.40;;
61358;SDS011;47228;46.762;23.598;2024-02-16T07:31:34;33.50;;;21.80;;
61358;SDS011;47228;46.762;23.598;2024-02-16T07:34:05;35.10;;;21.30;;
61358;SDS011;47228;46.762;23.598;2024-02-16T07:36:34;31.90;;;22.00;;
61358;SDS011;47228;46.762;23.598;2024-02-16T07:39:04;33.60;;;21.50;;
61358;SDS011;47228;46.762;23.598;2024-02-16T07:41:33;34.40;;;21.60;;
61358;SDS011;47228;46.762;23.598;2024-02-16T07:44:01;37.30;;;21.80;;
61358;SDS011;47228;46.762;23.598;2024-02-16T07:46:30;33.20;;;21.00;;
61358;SDS011;47228;46.762;23.598;2024-02-16T07:49:05;33.80;;;21.10;;
61358;SDS011;47228;46.762;23.598;2024-02-16T07:51:33;31.10;;;20.60;;
61358;SDS011;47228;46.762;23.598;2024-02-16T07:54:02;35.10;;;20.60;;
61358;SDS011;47228;46.762;23.598;2024-02-16T07:56:31;33.00;;;21.30;;
61358;SDS011;47228;46.762;23.598;2024-02-16T07:58:59;32.80;;;22.20;;
61358;SDS011;47228;46.762;23.598;2024-02-16T08:01:28;34.40;;;21.20;;
61358;SDS011;47228;46.762;23.598;2024-02-16T08:03:57;33.20;;;23.60;;
61358;SDS011;47228;46.762;23.598;2024-02-16T08:06:27;34.60;;;23.90;;
61358;SDS011;47228;46.762;23.598;2024-02-16T08:08:56;37.80;;;24.50;;
61358;SDS011;47228;46.762;23.598;2024-02-16T08:11:25;37.50;;;24.10;;
61358;SDS011;47228;46.762;23.598;2024-02-16T08:13:58;37.50;;;24.90;;
61358;SDS011;47228;46.762;23.598;2024-02-16T08:16:28;37.60;;;25.50;;
61358;SDS011;47228;46.762;23.598;2024-02-16T08:18:57;37.70;;;24.40;;
61358;SDS011;47228;46.762;23.598;2024-02-16T08:21:25;39.50;;;23.80;;
61358;SDS011;47228;46.762;23.598;2024-02-16T08:23:54;38.10;;;23.70;;
61358;SDS011;47228;46.762;23.598;2024-02-16T08:26:26;37.20;;;22.80;;
61358;SDS011;47228;46.762;23.598;2024-02-16T08:28:55;37.60;;;23.00;;
61358;SDS011;47228;46.762;23.598;2024-02-16T08:31:24;37.80;;;22.80;;
61358;SDS011;47228;46.762;23.598;2024-02-16T08:33:53;36.70;;;24.20;;
61358;SDS011;47228;46.762;23.598;2024-02-16T08:36:22;36.70;;;23.00;;
61358;SDS011;47228;46.762;23.598;2024-02-16T08:38:56;33.40;;;22.60;;
61358;SDS011;47228;46.762;23.598;2024-02-16T08:41:27;37.00;;;22.80;;
61358;SDS011;47228;46.762;23.598;2024-02-16T08:43:55;30.90;;;21.40;;
61358;SDS011;47228;46.762;23.598;2024-02-16T08:46:25;33.60;;;21.10;;
61358;SDS011;47228;46.762;23.598;2024-02-16T08:48:53;32.20;;;20.90;;
61358;SDS011;47228;46.762;23.598;2024-02-16T08:51:22;35.20;;;21.30;;
61358;SDS011;47228;46.762;23.598;2024-02-16T08:53:50;35.40;;;21.80;;
61358;SDS011;47228;46.762;23.598;2024-02-16T08:56:18;33.60;;;21.20;;
61358;SDS011;47228;46.762;23.598;2024-02-16T08:58:47;31.30;;;20.40;;
61358;SDS011;47228;46.762;23.598;2024-02-16T09:01:15;32.80;;;21.60;;
61358;SDS011;47228;46.762;23.598;2024-02-16T09:03:44;27.70;;;18.90;;
61358;SDS011;47228;46.762;23.598;2024-02-16T09:06:13;32.10;;;19.70;;
61358;SDS011;47228;46.762;23.598;2024-02-16T09:08:41;33.30;;;21.30;;
61358;SDS011;47228;46.762;23.598;2024-02-16T09:11:10;31.40;;;21.60;;
61358;SDS011;47228;46.762;23.598;2024-02-16T09:13:39;30.80;;;19.80;;
61358;SDS011;47228;46.762;23.598;2024-02-16T09:16:08;31.80;;;21.00;;
61358;SDS011;47228;46.762;23.598;2024-02-16T09:18:37;33.00;;;21.20;;
61358;SDS011;47228;46.762;23.598;2024-02-16T09:21:06;33.00;;;21.40;;
61358;SDS011;47228;46.762;23.598;2024-02-16T09:23:35;36.00;;;22.90;;
61358;SDS011;47228;46.762;23.598;2024-02-16T09:26:04;34.90;;;22.70;;
61358;SDS011;47228;46.762;23.598;2024-02-16T09:28:32;40.60;;;24.60;;
61358;SDS011;47228;46.762;23.598;2024-02-16T09:31:01;35.60;;;24.70;;
61358;SDS011;47228;46.762;23.598;2024-02-16T09:33:31;38.50;;;26.00;;
61358;SDS011;47228;46.762;23.598;2024-02-16T09:36:00;42.10;;;25.80;;
61358;SDS011;47228;46.762;23.598;2024-02-16T09:38:28;37.10;;;26.40;;
61358;SDS011;47228;46.762;23.598;2024-02-16T09:40:56;45.50;;;27.80;;
61358;SDS011;47228;46.762;23.598;2024-02-16T09:43:28;43.10;;;28.10;;
61358;SDS011;47228;46.762;23.598;2024-02-16T09:45:58;45.20;;;30.10;;
61358;SDS011;47228;46.762;23.598;2024-02-16T09:48:31;47.30;;;30.90;;
61358;SDS011;47228;46.762;23.598;2024-02-16T09:50:59;43.60;;;29.30;;
61358;SDS011;47228;46.762;23.598;2024-02-16T09:53:28;45.20;;;27.20;;
61358;SDS011;47228;46.762;23.598;2024-02-16T09:55:57;40.90;;;27.20;;
61358;SDS011;47228;46.762;23.598;2024-02-16T09:58:26;40.20;;;26.50;;
61358;SDS011;47228;46.762;23.598;2024-02-16T10:00:54;35.80;;;24.20;;
61358;SDS011;47228;46.762;23.598;2024-02-16T10:03:26;41.00;;;25.70;;
61358;SDS011;47228;46.762;23.598;2024-02-16T10:06:12;45.90;;;27.90;;
61358;SDS011;47228;46.762;23.598;2024-02-16T10:08:47;41.60;;;26.50;;
61358;SDS011;47228;46.762;23.598;2024-02-16T10:11:17;39.70;;;26.30;;
61358;SDS011;47228;46.762;23.598;2024-02-16T10:13:53;39.80;;;26.70;;
61358;SDS011;47228;46.762;23.598;2024-02-16T10:16:23;38.60;;;25.50;;
61358;SDS011;47228;46.762;23.598;2024-02-16T10:18:52;36.50;;;24.90;;
61358;SDS011;47228;46.762;23.598;2024-02-16T10:21:26;36.70;;;25.80;;
61358;SDS011;47228;46.762;23.598;2024-02-16T10:23:59;38.80;;;25.70;;
61358;SDS011;47228;46.762;23.598;2024-02-16T10:26:32;42.60;;;25.60;;
61358;SDS011;47228;46.762;23.598;2024-02-16T10:29:00;33.10;;;22.50;;
61358;SDS011;47228;46.762;23.598;2024-02-16T10:31:30;33.50;;;22.60;;
61358;SDS011;47228;46.762;23.598;2024-02-16T10:34:01;34.50;;;22.70;;
61358;SDS011;47228;46.762;23.598;2024-02-16T10:39:04;34.40;;;20.60;;
61358;SDS011;47228;46.762;23.598;2024-02-16T10:41:35;29.60;;;19.80;;
61358;SDS011;47228;46.762;23.598;2024-02-16T10:44:04;29.40;;;19.40;;
61358;SDS011;47228;46.762;23.598;2024-02-16T10:46:34;28.40;;;19.00;;
61358;SDS011;47228;46.762;23.598;2024-02-16T10:49:02;26.30;;;17.90;;
61358;SDS011;47228;46.762;23.598;2024-02-16T10:54:06;29.10;;;18.50;;
61358;SDS011;47228;46.762;23.598;2024-02-16T10:56:36;26.30;;;18.60;;
61358;SDS011;47228;46.762;23.598;2024-02-16T10:59:07;26.70;;;16.30;;
61358;SDS011;47228;46.762;23.598;2024-02-16T11:01:37;24.00;;;16.50;;
61358;SDS011;47228;46.762;23.598;2024-02-16T11:04:06;22.10;;;16.20;;
61358;SDS011;47228;46.762;23.598;2024-02-16T11:09:27;22.10;;;14.00;;
61358;SDS011;47228;46.762;23.598;2024-02-16T11:12:03;22.30;;;15.00;;
61358;SDS011;47228;46.762;23.598;2024-02-16T11:19:44;19.70;;;12.50;;
61358;SDS011;47228;46.762;23.598;2024-02-16T11:22:16;19.40;;;12.30;;
61358;SDS011;47228;46.762;23.598;2024-02-16T11:24:50;18.00;;;11.30;;
61358;SDS011;47228;46.762;23.598;2024-02-16T11:27:28;17.30;;;10.30;;
61358;SDS011;47228;46.762;23.598;2024-02-16T11:29:59;16.10;;;10.30;;
61358;SDS011;47228;46.762;23.598;2024-02-16T11:32:32;15.50;;;9.40;;
61358;SDS011;47228;46.762;23.598;2024-02-16T11:35:06;12.70;;;9.00;;
61358;SDS011;47228;46.762;23.598;2024-02-16T11:37:35;14.30;;;8.50;;
61358;SDS011;47228;46.762;23.598;2024-02-16T11:40:04;13.50;;;9.00;;
61358;SDS011;47228;46.762;23.598;2024-02-16T11:42:35;15.90;;;8.50;;
61358;SDS011;47228;46.762;23.598;2024-02-16T11:45:04;13.00;;;9.00;;
61358;SDS011;47228;46.762;23.598;2024-02-16T11:47:34;19.90;;;9.50;;
61358;SDS011;47228;46.762;23.598;2024-02-16T11:50:06;12.60;;;8.20;;
61358;SDS011;47228;46.762;23.598;2024-02-16T11:52:39;18.80;;;9.40;;
61358;SDS011;47228;46.762;23.598;2024-02-16T11:55:08;12.10;;;8.30;;
61358;SDS011;47228;46.762;23.598;2024-02-16T11:57:38;13.00;;;7.80;;
61358;SDS011;47228;46.762;23.598;2024-02-16T12:00:08;14.10;;;8.60;;
61358;SDS011;47228;46.762;23.598;2024-02-16T12:02:40;13.20;;;7.70;;
61358;SDS011;47228;46.762;23.598;2024-02-16T12:05:08;14.50;;;8.10;;
61358;SDS011;47228;46.762;23.598;2024-02-16T12:07:37;14.50;;;8.70;;
61358;SDS011;47228;46.762;23.598;2024-02-16T12:10:08;13.60;;;7.90;;
61358;SDS011;47228;46.762;23.598;2024-02-16T12:12:39;13.10;;;8.10;;
61358;SDS011;47228;46.762;23.598;2024-02-16T12:15:07;12.50;;;7.50;;
61358;SDS011;47228;46.762;23.598;2024-02-16T12:17:38;14.40;;;8.10;;
61358;SDS011;47228;46.762;23.598;2024-02-16T12:20:12;17.60;;;8.70;;
61358;SDS011;47228;46.762;23.598;2024-02-16T12:22:43;13.50;;;9.20;;
61358;SDS011;47228;46.762;23.598;2024-02-16T12:25:11;11.80;;;7.80;;
61358;SDS011;47228;46.762;23.598;2024-02-16T12:27:40;13.80;;;8.30;;
61358;SDS011;47228;46.762;23.598;2024-02-16T12:30:08;13.10;;;7.40;;
61358;SDS011;47228;46.762;23.598;2024-02-16T12:32:37;13.80;;;7.70;;
61358;SDS011;47228;46.762;23.598;2024-02-16T12:35:05;16.20;;;7.50;;
61358;SDS011;47228;46.762;23.598;2024-02-16T12:37:34;13.10;;;7.70;;
61358;SDS011;47228;46.762;23.598;2024-02-16T12:40:03;11.50;;;7.00;;
61358;SDS011;47228;46.762;23.598;2024-02-16T12:42:34;12.70;;;7.50;;
61358;SDS011;47228;46.762;23.598;2024-02-16T12:45:02;12.10;;;7.10;;
61358;SDS011;47228;46.762;23.598;2024-02-16T12:47:31;13.10;;;6.60;;
61358;SDS011;47228;46.762;23.598;2024-02-16T12:49:59;11.50;;;6.70;;
61358;SDS011;47228;46.762;23.598;2024-02-16T12:52:28;10.80;;;6.70;;
61358;SDS011;47228;46.762;23.598;2024-02-16T12:54:56;9.60;;;6.20;;
61358;SDS011;47228;46.762;23.598;2024-02-16T12:57:26;14.10;;;6.80;;
61358;SDS011;47228;46.762;23.598;2024-02-16T12:59:57;12.10;;;7.00;;
61358;SDS011;47228;46.762;23.598;2024-02-16T13:02:28;10.20;;;6.50;;
61358;SDS011;47228;46.762;23.598;2024-02-16T13:04:57;11.80;;;6.80;;
61358;SDS011;47228;46.762;23.598;2024-02-16T13:07:25;10.50;;;6.20;;
61358;SDS011;47228;46.762;23.598;2024-02-16T13:09:53;10.60;;;6.30;;
61358;SDS011;47228;46.762;23.598;2024-02-16T13:12:23;11.20;;;6.30;;
61358;SDS011;47228;46.762;23.598;2024-02-16T13:14:54;11.30;;;6.50;;
61358;SDS011;47228;46.762;23.598;2024-02-16T13:17:24;10.30;;;6.30;;
61358;SDS011;47228;46.762;23.598;2024-02-16T13:19:54;13.70;;;6.60;;
61358;SDS011;47228;46.762;23.598;2024-02-16T13:22:22;11.30;;;6.30;;
61358;SDS011;47228;46.762;23.598;2024-02-16T13:24:50;11.50;;;5.80;;
61358;SDS011;47228;46.762;23.598;2024-02-16T13:27:19;9.00;;;6.30;;
61358;SDS011;47228;46.762;23.598;2024-02-16T13:29:47;10.30;;;5.60;;
61358;SDS011;47228;46.762;23.598;2024-02-16T13:32:18;9.20;;;5.00;;
61358;SDS011;47228;46.762;23.598;2024-02-16T13:34:47;8.80;;;5.00;;
61358;SDS011;47228;46.762;23.598;2024-02-16T13:37:15;9.80;;;5.50;;
61358;SDS011;47228;46.762;23.598;2024-02-16T13:39:44;9.30;;;5.90;;
61358;SDS011;47228;46.762;23.598;2024-02-16T13:42:12;14.10;;;5.50;;
61358;SDS011;47228;46.762;23.598;2024-02-16T13:44:41;12.30;;;5.80;;
61358;SDS011;47228;46.762;23.598;2024-02-16T13:47:09;7.90;;;5.30;;
61358;SDS011;47228;46.762;23.598;2024-02-16T13:49:38;10.50;;;5.60;;
61358;SDS011;47228;46.762;23.598;2024-02-16T13:52:07;12.20;;;5.70;;
61358;SDS011;47228;46.762;23.598;2024-02-16T13:54:36;9.90;;;5.60;;
61358;SDS011;47228;46.762;23.598;2024-02-16T13:57:04;8.40;;;5.00;;
61358;SDS011;47228;46.762;23.598;2024-02-16T13:59:33;8.30;;;5.20;;
61358;SDS011;47228;46.762;23.598;2024-02-16T14:02:01;9.50;;;6.00;;
61358;SDS011;47228;46.762;23.598;2024-02-16T14:04:30;9.40;;;5.80;;
61358;SDS011;47228;46.762;23.598;2024-02-16T14:06:58;10.30;;;5.40;;
61358;SDS011;47228;46.762;23.598;2024-02-16T14:09:27;8.60;;;5.70;;
61358;SDS011;47228;46.762;23.598;2024-02-16T14:14:29;8.80;;;4.70;;
61358;SDS011;47228;46.762;23.598;2024-02-16T14:17:05;8.30;;;4.80;;
61358;SDS011;47228;46.762;23.598;2024-02-16T14:19:33;8.80;;;4.50;;
61358;SDS011;47228;46.762;23.598;2024-02-16T14:22:05;7.70;;;4.00;;
61358;SDS011;47228;46.762;23.598;2024-02-16T14:24:35;7.80;;;4.30;;
61358;SDS011;47228;46.762;23.598;2024-02-16T14:27:03;7.70;;;4.60;;
61358;SDS011;47228;46.762;23.598;2024-02-16T14:29:32;9.30;;;5.10;;
61358;SDS011;47228;46.762;23.598;2024-02-16T14:32:01;9.10;;;4.90;;
61358;SDS011;47228;46.762;23.598;2024-02-16T14:34:29;15.10;;;5.90;;
61358;SDS011;47228;46.762;23.598;2024-02-16T14:36:59;8.70;;;4.70;;
61358;SDS011;47228;46.762;23.598;2024-02-16T14:39:27;8.50;;;4.90;;
61358;SDS011;47228;46.762;23.598;2024-02-16T14:41:55;12.10;;;4.60;;